sensor_id;sensor_type;location;lat;lon;timestamp;pressure;altitude;pressure_sealevel;temperature;humidity
36222;BME280;22266;52.340;4.962;2022-09-09T00:00:41;100688.34;;;17.58;67.43
36222;BME280;22266;52.340;4.962;2022-09-09T00:03:17;100681.72;;;17.54;67.89
36222;BME280;22266;52.340;4.962;2022-09-09T00:08:44;100668.38;;;17.52;67.69
36222;BME280;22266;52.340;4.962;2022-09-09T00:11:26;100666.88;;;17.45;67.75
36222;BME280;22266;52.340;4.962;2022-09-09T00:14:00;100664.75;;;17.47;67.93
36222;BME280;22266;52.340;4.962;2022-09-09T00:16:33;100660.59;;;17.44;67.82
36222;BME280;22266;52.340;4.962;2022-09-09T00:19:15;100660.59;;;17.44;67.86
36222;BME280;22266;52.340;4.962;2022-09-09T00:22:17;100670.94;;;17.42;67.95
36222;BME280;22266;52.340;4.962;2022-09-09T00:24:46;100669.03;;;17.43;68.34
36222;BME280;22266;52.340;4.962;2022-09-09T00:27:29;100664.88;;;17.40;67.95
36222;BME280;22266;52.340;4.962;2022-09-09T00:30:24;100663.97;;;17.35;68.26
36222;BME280;22266;52.340;4.962;2022-09-09T00:32:58;100661.66;;;17.26;68.49
36222;BME280;22266;52.340;4.962;2022-09-09T00:35:32;100657.63;;;17.17;69.00
36222;BME280;22266;52.340;4.962;2022-09-09T00:38:10;100664.25;;;17.21;69.44
36222;BME280;22266;52.340;4.962;2022-09-09T00:40:47;100661.53;;;17.21;68.83
36222;BME280;22266;52.340;4.962;2022-09-09T00:43:28;100658.22;;;17.19;69.18
36222;BME280;22266;52.340;4.962;2022-09-09T00:46:25;100661.78;;;17.20;68.99
36222;BME280;22266;52.340;4.962;2022-09-09T00:51:59;100659.88;;;17.20;69.53
36222;BME280;22266;52.340;4.962;2022-09-09T00:57:22;100658.22;;;17.19;69.41
36222;BME280;22266;52.340;4.962;2022-09-09T00:59:55;100666.41;;;17.19;69.60
36222;BME280;22266;52.340;4.962;2022-09-09T01:02:38;100665.22;;;17.15;69.37
36222;BME280;22266;52.340;4.962;2022-09-09T01:05:20;100657.63;;;17.17;69.50
36222;BME280;22266;52.340;4.962;2022-09-09T01:07:49;100660.34;;;17.17;69.64
36222;BME280;22266;52.340;4.962;2022-09-09T01:10:34;100654.91;;;17.17;69.69
36222;BME280;22266;52.340;4.962;2022-09-09T01:13:05;100655.78;;;17.18;69.61
36222;BME280;22266;52.340;4.962;2022-09-09T01:15:40;100652.78;;;17.19;69.47
36222;BME280;22266;52.340;4.962;2022-09-09T01:18:10;100653.88;;;17.18;69.62
36222;BME280;22266;52.340;4.962;2022-09-09T01:20:56;100648.56;;;17.12;69.88
36222;BME280;22266;52.340;4.962;2022-09-09T01:24:15;100652.00;;;17.07;69.78
36222;BME280;22266;52.340;4.962;2022-09-09T01:27:11;100647.53;;;17.01;70.23
36222;BME280;22266;52.340;4.962;2022-09-09T01:29:39;100654.38;;;17.03;70.52
36222;BME280;22266;52.340;4.962;2022-09-09T01:32:45;100656.03;;;17.04;70.03
36222;BME280;22266;52.340;4.962;2022-09-09T01:35:37;100648.38;;;17.01;70.05
36222;BME280;22266;52.340;4.962;2022-09-09T01:38:06;100650.50;;;16.99;70.63
36222;BME280;22266;52.340;4.962;2022-09-09T01:40:34;100643.06;;;16.95;70.83
36222;BME280;22266;52.340;4.962;2022-09-09T01:43:00;100647.44;;;16.96;70.74
36222;BME280;22266;52.340;4.962;2022-09-09T01:45:27;100644.72;;;16.96;70.42
36222;BME280;22266;52.340;4.962;2022-09-09T01:47:54;100649.06;;;16.97;70.71
36222;BME280;22266;52.340;4.962;2022-09-09T01:50:41;100643.16;;;17.00;70.44
36222;BME280;22266;52.340;4.962;2022-09-09T01:53:08;100644.72;;;16.96;70.74
36222;BME280;22266;52.340;4.962;2022-09-09T01:55:44;100639.63;;;16.99;70.23
36222;BME280;22266;52.340;4.962;2022-09-09T01:58:43;100641.16;;;16.95;70.31
36222;BME280;22266;52.340;4.962;2022-09-09T02:04:15;100625.97;;;16.83;70.94
36222;BME280;22266;52.340;4.962;2022-09-09T02:06:45;100625.63;;;16.79;70.94
36222;BME280;22266;52.340;4.962;2022-09-09T02:09:23;100627.50;;;16.78;71.21
36222;BME280;22266;52.340;4.962;2022-09-09T02:11:57;100625.63;;;16.79;70.99
36222;BME280;22266;52.340;4.962;2022-09-09T02:14:41;100629.28;;;16.73;70.92
36222;BME280;22266;52.340;4.962;2022-09-09T02:17:11;100622.81;;;16.74;71.19
36222;BME280;22266;52.340;4.962;2022-09-09T02:19:59;100620.44;;;16.77;71.46
36222;BME280;22266;52.340;4.962;2022-09-09T02:22:41;100623.72;;;16.79;71.26
36222;BME280;22266;52.340;4.962;2022-09-09T02:25:14;100616.38;;;16.80;70.79
36222;BME280;22266;52.340;4.962;2022-09-09T02:27:43;100617.72;;;16.77;70.84
36222;BME280;22266;52.340;4.962;2022-09-09T02:30:12;100617.13;;;16.75;71.29
36222;BME280;22266;52.340;4.962;2022-09-09T02:32:47;100615.47;;;16.74;71.10
36222;BME280;22266;52.340;4.962;2022-09-09T02:35:19;100615.22;;;16.76;71.17
36222;BME280;22266;52.340;4.962;2022-09-09T02:37:51;100618.19;;;16.74;71.31
36222;BME280;22266;52.340;4.962;2022-09-09T02:40:19;100619.94;;;16.80;71.24
36222;BME280;22266;52.340;4.962;2022-09-09T02:42:55;100614.00;;;16.84;70.96
36222;BME280;22266;52.340;4.962;2022-09-09T02:45:27;100621.59;;;16.82;70.91
36222;BME280;22266;52.340;4.962;2022-09-09T02:50:54;100613.09;;;16.78;70.91
36222;BME280;22266;52.340;4.962;2022-09-09T02:53:39;100612.50;;;16.76;71.07
36222;BME280;22266;52.340;4.962;2022-09-09T02:56:15;100614.00;;;16.72;71.05
36222;BME280;22266;52.340;4.962;2022-09-09T02:58:46;100599.84;;;16.70;71.02
36222;BME280;22266;52.340;4.962;2022-09-09T03:01:13;100606.09;;;16.70;70.73
36222;BME280;22266;52.340;4.962;2022-09-09T03:03:40;100607.19;;;16.69;70.78
36222;BME280;22266;52.340;4.962;2022-09-09T03:06:12;100611.53;;;16.70;70.95
36222;BME280;22266;52.340;4.962;2022-09-09T03:08:39;100604.94;;;16.66;71.00
36222;BME280;22266;52.340;4.962;2022-09-09T03:11:05;100604.00;;;16.61;70.81
36222;BME280;22266;52.340;4.962;2022-09-09T03:13:35;100607.78;;;16.60;70.45
36222;BME280;22266;52.340;4.962;2022-09-09T03:16:04;100610.75;;;16.58;70.64
36222;BME280;22266;52.340;4.962;2022-09-09T03:18:35;100611.56;;;16.59;70.68
36222;BME280;22266;52.340;4.962;2022-09-09T03:21:02;100604.72;;;16.56;70.80
36222;BME280;22266;52.340;4.962;2022-09-09T03:23:29;100603.06;;;16.55;70.71
36222;BME280;22266;52.340;4.962;2022-09-09T03:25:57;100608.25;;;16.56;70.85
36222;BME280;22266;52.340;4.962;2022-09-09T03:28:34;100604.13;;;16.54;70.83
36222;BME280;22266;52.340;4.962;2022-09-09T03:31:03;100602.72;;;16.51;70.81
36222;BME280;22266;52.340;4.962;2022-09-09T03:33:34;100598.34;;;16.50;70.78
36222;BME280;22266;52.340;4.962;2022-09-09T03:36:05;100599.44;;;16.49;70.96
36222;BME280;22266;52.340;4.962;2022-09-09T03:38:31;100600.81;;;16.52;70.95
36222;BME280;22266;52.340;4.962;2022-09-09T03:40:58;100595.38;;;16.52;70.82
36222;BME280;22266;52.340;4.962;2022-09-09T03:43:26;100595.88;;;16.49;70.72
36222;BME280;22266;52.340;4.962;2022-09-09T03:45:54;100597.53;;;16.50;71.00
36222;BME280;22266;52.340;4.962;2022-09-09T03:48:25;100595.03;;;16.48;70.93
36222;BME280;22266;52.340;4.962;2022-09-09T03:50:54;100599.06;;;16.46;70.72
36222;BME280;22266;52.340;4.962;2022-09-09T03:53:23;100595.19;;;16.42;70.98
36222;BME280;22266;52.340;4.962;2022-09-09T03:55:53;100595.09;;;16.37;71.23
36222;BME280;22266;52.340;4.962;2022-09-09T03:58:27;100595.09;;;16.37;70.91
36222;BME280;22266;52.340;4.962;2022-09-09T04:01:02;100592.84;;;16.34;71.12
36222;BME280;22266;52.340;4.962;2022-09-09T04:03:29;100592.47;;;16.30;70.89
36222;BME280;22266;52.340;4.962;2022-09-09T04:05:58;100592.47;;;16.30;71.04
36222;BME280;22266;52.340;4.962;2022-09-09T04:08:29;100582.91;;;16.27;71.19
36222;BME280;22266;52.340;4.962;2022-09-09T04:10:59;100581.25;;;16.26;71.62
36222;BME280;22266;52.340;4.962;2022-09-09T04:13:28;100579.38;;;16.27;71.02
36222;BME280;22266;52.340;4.962;2022-09-09T04:15:58;100575.59;;;16.28;71.51
36222;BME280;22266;52.340;4.962;2022-09-09T04:18:26;100581.84;;;16.28;71.20
36222;BME280;22266;52.340;4.962;2022-09-09T04:20:54;100577.47;;;16.27;71.30
36222;BME280;22266;52.340;4.962;2022-09-09T04:23:26;100579.13;;;16.28;71.18
36222;BME280;22266;52.340;4.962;2022-09-09T04:25:58;100575.84;;;16.26;71.19
36222;BME280;22266;52.340;4.962;2022-09-09T04:28:29;100572.88;;;16.28;71.47
36222;BME280;22266;52.340;4.962;2022-09-09T04:30:57;100573.94;;;16.27;71.30
36222;BME280;22266;52.340;4.962;2022-09-09T04:33:29;100576.91;;;16.25;71.52
36222;BME280;22266;52.340;4.962;2022-09-09T04:35:57;100565.69;;;16.22;71.47
36222;BME280;22266;52.340;4.962;2022-09-09T04:38:25;100563.19;;;16.20;71.75
36222;BME280;22266;52.340;4.962;2022-09-09T04:40:53;100561.31;;;16.21;71.91
36222;BME280;22266;52.340;4.962;2022-09-09T04:43:21;100568.63;;;16.20;71.61
36222;BME280;22266;52.340;4.962;2022-09-09T04:45:50;100563.44;;;16.19;71.85
36222;BME280;22266;52.340;4.962;2022-09-09T04:48:20;100561.44;;;16.14;71.85
36222;BME280;22266;52.340;4.962;2022-09-09T04:50:59;100562.38;;;16.08;71.16
36222;BME280;22266;52.340;4.962;2022-09-09T04:53:26;100556.03;;;16.02;71.65
36222;BME280;22266;52.340;4.962;2022-09-09T04:56:16;100565.00;;;16.03;71.70
36222;BME280;22266;52.340;4.962;2022-09-09T04:58:50;100557.91;;;16.02;71.58
36222;BME280;22266;52.340;4.962;2022-09-09T05:01:19;100552.47;;;16.02;71.83
36222;BME280;22266;52.340;4.962;2022-09-09T05:03:48;100554.13;;;16.03;71.56
36222;BME280;22266;52.340;4.962;2022-09-09T05:06:20;100552.22;;;16.03;71.36
36222;BME280;22266;52.340;4.962;2022-09-09T05:08:52;100560.63;;;16.02;71.22
36222;BME280;22266;52.340;4.962;2022-09-09T05:11:25;100558.72;;;16.02;71.47
36222;BME280;22266;52.340;4.962;2022-09-09T05:13:54;100555.44;;;16.00;71.55
36222;BME280;22266;52.340;4.962;2022-09-09T05:16:21;100559.44;;;15.98;71.58
36222;BME280;22266;52.340;4.962;2022-09-09T05:18:49;100548.47;;;15.93;71.61
36222;BME280;22266;52.340;4.962;2022-09-09T05:21:19;100547.16;;;15.95;71.54
36222;BME280;22266;52.340;4.962;2022-09-09T05:23:47;100548.84;;;15.96;71.28
36222;BME280;22266;52.340;4.962;2022-09-09T05:26:15;100552.59;;;15.95;71.36
36222;BME280;22266;52.340;4.962;2022-09-09T05:28:45;100560.97;;;15.94;71.31
36222;BME280;22266;52.340;4.962;2022-09-09T05:31:13;100557.81;;;15.97;71.42
36222;BME280;22266;52.340;4.962;2022-09-09T05:33:43;100546.22;;;15.90;71.55
36222;BME280;22266;52.340;4.962;2022-09-09T05:36:15;100544.09;;;15.92;71.82
36222;BME280;22266;52.340;4.962;2022-09-09T05:38:44;100554.47;;;15.95;71.45
36222;BME280;22266;52.340;4.962;2022-09-09T05:41:12;100545.41;;;15.89;71.80
36222;BME280;22266;52.340;4.962;2022-09-09T05:43:39;100545.63;;;15.88;71.54
36222;BME280;22266;52.340;4.962;2022-09-09T05:46:14;100550.47;;;15.86;72.07
36222;BME280;22266;52.340;4.962;2022-09-09T05:48:42;100546.69;;;15.87;71.89
36222;BME280;22266;52.340;4.962;2022-09-09T05:51:11;100546.22;;;15.90;71.84
36222;BME280;22266;52.340;4.962;2022-09-09T05:53:38;100547.41;;;15.94;71.95
36222;BME280;22266;52.340;4.962;2022-09-09T05:56:25;100550.47;;;15.97;71.93
36222;BME280;22266;52.340;4.962;2022-09-09T05:58:53;100558.16;;;16.00;72.20
36222;BME280;22266;52.340;4.962;2022-09-09T06:01:23;100557.09;;;16.01;72.04
36222;BME280;22266;52.340;4.962;2022-09-09T06:03:51;100550.47;;;15.97;71.77
36222;BME280;22266;52.340;4.962;2022-09-09T06:06:22;100554.47;;;15.95;72.21
36222;BME280;22266;52.340;4.962;2022-09-09T06:08:54;100559.44;;;15.98;72.14
36222;BME280;22266;52.340;4.962;2022-09-09T06:11:27;100544.81;;;15.99;72.19
36222;BME280;22266;52.340;4.962;2022-09-09T06:13:54;100547.63;;;16.04;71.93
36222;BME280;22266;52.340;4.962;2022-09-09T06:16:22;100555.31;;;16.07;71.86
36222;BME280;22266;52.340;4.962;2022-09-09T06:18:51;100553.19;;;16.09;72.24
36222;BME280;22266;52.340;4.962;2022-09-09T06:21:26;100553.41;;;16.07;71.97
36222;BME280;22266;52.340;4.962;2022-09-09T06:23:53;100547.97;;;16.07;72.25
36222;BME280;22266;52.340;4.962;2022-09-09T06:26:31;100556.25;;;16.13;72.43
36222;BME280;22266;52.340;4.962;2022-09-09T06:29:01;100566.97;;;16.19;72.46
36222;BME280;22266;52.340;4.962;2022-09-09T06:31:32;100563.31;;;16.25;71.99
36222;BME280;22266;52.340;4.962;2022-09-09T06:34:07;100560.00;;;16.23;72.04
36222;BME280;22266;52.340;4.962;2022-09-09T06:36:38;100552.22;;;16.15;72.21
36222;BME280;22266;52.340;4.962;2022-09-09T06:39:06;100555.75;;;16.16;72.23
36222;BME280;22266;52.340;4.962;2022-09-09T06:41:40;100552.13;;;16.10;72.58
36222;BME280;22266;52.340;4.962;2022-09-09T06:44:13;100562.00;;;16.16;72.71
36222;BME280;22266;52.340;4.962;2022-09-09T06:46:40;100556.94;;;16.20;72.49
36222;BME280;22266;52.340;4.962;2022-09-09T06:49:09;100565.78;;;16.27;72.34
36222;BME280;22266;52.340;4.962;2022-09-09T06:51:37;100566.16;;;16.30;72.26
36222;BME280;22266;52.340;4.962;2022-09-09T06:54:11;100560.34;;;16.39;72.31
36222;BME280;22266;52.340;4.962;2022-09-09T06:56:42;100564.84;;;16.45;72.18
36222;BME280;22266;52.340;4.962;2022-09-09T06:59:19;100554.41;;;16.53;72.16
36222;BME280;22266;52.340;4.962;2022-09-09T07:01:46;100565.72;;;16.62;71.77
36222;BME280;22266;52.340;4.962;2022-09-09T07:04:18;100558.97;;;16.65;71.21
36222;BME280;22266;52.340;4.962;2022-09-09T07:06:45;100555.41;;;16.64;71.48
36222;BME280;22266;52.340;4.962;2022-09-09T07:09:16;100551.69;;;16.53;71.58
36222;BME280;22266;52.340;4.962;2022-09-09T07:11:48;100561.50;;;16.54;72.00
36222;BME280;22266;52.340;4.962;2022-09-09T07:14:18;100553.69;;;16.58;72.11
36222;BME280;22266;52.340;4.962;2022-09-09T07:16:48;100561.59;;;16.60;71.76
36222;BME280;22266;52.340;4.962;2022-09-09T07:19:16;100551.06;;;16.63;71.71
36222;BME280;22266;52.340;4.962;2022-09-09T07:21:44;100553.78;;;16.63;71.80
36222;BME280;22266;52.340;4.962;2022-09-09T07:24:13;100552.59;;;16.59;71.94
36222;BME280;22266;52.340;4.962;2022-09-09T07:26:41;100555.31;;;16.59;71.74
36222;BME280;22266;52.340;4.962;2022-09-09T07:29:08;100544.81;;;16.63;71.93
36222;BME280;22266;52.340;4.962;2022-09-09T07:31:36;100554.13;;;16.67;71.75
36222;BME280;22266;52.340;4.962;2022-09-09T07:34:08;100547.03;;;16.66;71.92
36222;BME280;22266;52.340;4.962;2022-09-09T07:36:36;100552.94;;;16.63;71.81
36222;BME280;22266;52.340;4.962;2022-09-09T07:39:11;100550.59;;;16.66;72.08
36222;BME280;22266;52.340;4.962;2022-09-09T07:41:45;100551.75;;;16.70;71.78
36222;BME280;22266;52.340;4.962;2022-09-09T07:44:18;100551.31;;;16.73;71.94
36222;BME280;22266;52.340;4.962;2022-09-09T07:46:48;100548.69;;;16.67;71.91
36222;BME280;22266;52.340;4.962;2022-09-09T07:49:19;100545.16;;;16.66;71.97
36222;BME280;22266;52.340;4.962;2022-09-09T07:51:54;100560.97;;;16.69;72.09
36222;BME280;22266;52.340;4.962;2022-09-09T07:54:21;100551.66;;;16.65;71.95
36222;BME280;22266;52.340;4.962;2022-09-09T07:56:52;100553.88;;;16.68;72.24
36222;BME280;22266;52.340;4.962;2022-09-09T07:59:21;100548.44;;;16.68;71.65
36222;BME280;22266;52.340;4.962;2022-09-09T08:01:51;100554.84;;;16.74;71.73
36222;BME280;22266;52.340;4.962;2022-09-09T08:04:24;100551.63;;;16.77;72.06
36222;BME280;22266;52.340;4.962;2022-09-09T08:06:54;100553.63;;;16.82;71.43
36222;BME280;22266;52.340;4.962;2022-09-09T08:09:23;100552.78;;;16.81;71.45
36222;BME280;22266;52.340;4.962;2022-09-09T08:12:04;100549.38;;;16.86;71.82
36222;BME280;22266;52.340;4.962;2022-09-09T08:14:33;100545.91;;;16.90;71.67
36222;BME280;22266;52.340;4.962;2022-09-09T08:17:00;100549.28;;;16.97;71.44
36222;BME280;22266;52.340;4.962;2022-09-09T08:19:28;100542.13;;;16.91;71.51
36222;BME280;22266;52.340;4.962;2022-09-09T08:22:00;100544.59;;;16.93;71.36
36222;BME280;22266;52.340;4.962;2022-09-09T08:24:29;100543.84;;;16.97;71.51
36222;BME280;22266;52.340;4.962;2022-09-09T08:26:55;100540.75;;;17.05;71.56
36222;BME280;22266;52.340;4.962;2022-09-09T08:29:23;100550.09;;;17.10;71.08
36222;BME280;22266;52.340;4.962;2022-09-09T08:31:53;100545.81;;;17.14;71.06
36222;BME280;22266;52.340;4.962;2022-09-09T08:34:21;100545.63;;;17.20;70.67
36222;BME280;22266;52.340;4.962;2022-09-09T08:36:50;100554.63;;;17.21;70.43
36222;BME280;22266;52.340;4.962;2022-09-09T08:39:21;100557.59;;;17.19;70.63
36222;BME280;22266;52.340;4.962;2022-09-09T08:50:46;100567.56;;;17.14;70.30
36222;BME280;22266;52.340;4.962;2022-09-09T08:53:27;100567.56;;;17.14;70.23
36222;BME280;22266;52.340;4.962;2022-09-09T08:56:09;100573.00;;;17.14;70.57
36222;BME280;22266;52.340;4.962;2022-09-09T08:58:55;100572.16;;;17.13;70.44
36222;BME280;22266;52.340;4.962;2022-09-09T09:01:55;100571.66;;;17.16;70.14
36222;BME280;22266;52.340;4.962;2022-09-09T09:07:22;100570.28;;;17.14;70.55
36222;BME280;22266;52.340;4.962;2022-09-09T09:13:18;100577.03;;;17.11;70.65
36222;BME280;22266;52.340;4.962;2022-09-09T09:15:53;100568.03;;;17.11;70.21
36222;BME280;22266;52.340;4.962;2022-09-09T09:18:23;100569.69;;;17.12;70.73
36222;BME280;22266;52.340;4.962;2022-09-09T09:21:12;100571.44;;;17.18;70.58
36222;BME280;22266;52.340;4.962;2022-09-09T09:23:48;100578.88;;;17.22;70.31
36222;BME280;22266;52.340;4.962;2022-09-09T09:26:19;100575.00;;;17.18;70.08
36222;BME280;22266;52.340;4.962;2022-09-09T09:28:47;100573.66;;;17.21;69.93
36222;BME280;22266;52.340;4.962;2022-09-09T09:31:19;100574.47;;;17.21;69.86
36222;BME280;22266;52.340;4.962;2022-09-09T09:33:49;100588.59;;;17.18;70.06
36222;BME280;22266;52.340;4.962;2022-09-09T09:36:19;100577.59;;;17.13;70.14
36222;BME280;22266;52.340;4.962;2022-09-09T09:38:58;100582.13;;;17.08;70.41
36222;BME280;22266;52.340;4.962;2022-09-09T09:41:47;100581.91;;;16.97;70.24
36222;BME280;22266;52.340;4.962;2022-09-09T09:44:28;100588.97;;;17.10;70.13
36222;BME280;22266;52.340;4.962;2022-09-09T09:47:10;100585.88;;;17.18;69.78
36222;BME280;22266;52.340;4.962;2022-09-09T09:49:57;100592.56;;;17.27;69.67
36222;BME280;22266;52.340;4.962;2022-09-09T09:52:31;100584.06;;;17.24;69.78
36222;BME280;22266;52.340;4.962;2022-09-09T09:55:03;100585.63;;;17.20;70.12
36222;BME280;22266;52.340;4.962;2022-09-09T09:57:34;100584.78;;;17.19;69.76
36222;BME280;22266;52.340;4.962;2022-09-09T10:00:13;100568.22;;;17.21;69.94
36222;BME280;22266;52.340;4.962;2022-09-09T10:02:44;100580.03;;;17.26;69.71
36222;BME280;22266;52.340;4.962;2022-09-09T10:05:25;100576.91;;;17.35;70.22
36222;BME280;22266;52.340;4.962;2022-09-09T10:19:04;100569.72;;;17.45;71.35
36222;BME280;22266;52.340;4.962;2022-09-09T10:27:21;100582.03;;;17.65;69.37
36222;BME280;22266;52.340;4.962;2022-09-09T10:30:24;100573.19;;;17.58;69.38
36222;BME280;22266;52.340;4.962;2022-09-09T10:35:47;100585.25;;;17.62;68.85
36222;BME280;22266;52.340;4.962;2022-09-09T10:38:34;100581.94;;;17.60;69.22
36222;BME280;22266;52.340;4.962;2022-09-09T10:41:15;100581.53;;;17.68;69.28
36222;BME280;22266;52.340;4.962;2022-09-09T10:44:05;100560.47;;;17.75;69.09
36222;BME280;22266;52.340;4.962;2022-09-09T10:50:02;100575.28;;;17.84;69.16
36222;BME280;22266;52.340;4.962;2022-09-09T10:55:30;100567.38;;;17.83;68.69
36222;BME280;22266;52.340;4.962;2022-09-09T10:58:02;100571.81;;;17.89;68.54
36222;BME280;22266;52.340;4.962;2022-09-09T11:00:35;100575.44;;;17.94;68.55
36222;BME280;22266;52.340;4.962;2022-09-09T11:03:04;100574.06;;;17.92;68.49
36222;BME280;22266;52.340;4.962;2022-09-09T11:05:41;100574.44;;;18.00;68.45
36222;BME280;22266;52.340;4.962;2022-09-09T11:08:18;100573.69;;;18.05;68.68
36222;BME280;22266;52.340;4.962;2022-09-09T11:16:42;100565.78;;;18.03;68.14
36222;BME280;22266;52.340;4.962;2022-09-09T11:19:24;100567.91;;;18.01;67.71
36222;BME280;22266;52.340;4.962;2022-09-09T11:21:55;100560.19;;;17.93;67.85
36222;BME280;22266;52.340;4.962;2022-09-09T11:24:44;100564.53;;;17.94;68.02
36222;BME280;22266;52.340;4.962;2022-09-09T11:27:17;100564.88;;;17.98;68.32
36222;BME280;22266;52.340;4.962;2022-09-09T11:36:16;100572.22;;;17.97;68.76
36222;BME280;22266;52.340;4.962;2022-09-09T11:38:52;100567.78;;;17.91;68.97
36222;BME280;22266;52.340;4.962;2022-09-09T11:41:20;100559.34;;;17.93;69.05
36222;BME280;22266;52.340;4.962;2022-09-09T11:43:50;100561.69;;;17.84;69.01
36222;BME280;22266;52.340;4.962;2022-09-09T11:46:38;100567.84;;;17.96;69.04
36222;BME280;22266;52.340;4.962;2022-09-09T11:49:06;100572.84;;;18.21;69.36
36222;BME280;22266;52.340;4.962;2022-09-09T11:51:49;100569.44;;;18.31;68.73
36222;BME280;22266;52.340;4.962;2022-09-09T11:54:29;100581.28;;;18.20;68.63
36222;BME280;22266;52.340;4.962;2022-09-09T11:56:56;100576.00;;;18.13;68.74
36222;BME280;22266;52.340;4.962;2022-09-09T11:59:28;100571.78;;;18.06;68.85
36222;BME280;22266;52.340;4.962;2022-09-09T12:01:59;100571.84;;;18.11;68.72
36222;BME280;22266;52.340;4.962;2022-09-09T12:04:35;100568.41;;;18.15;69.11
36222;BME280;22266;52.340;4.962;2022-09-09T12:07:22;100572.50;;;18.18;68.98
36222;BME280;22266;52.340;4.962;2022-09-09T12:10:33;100576.78;;;18.31;68.87
36222;BME280;22266;52.340;4.962;2022-09-09T12:12:40;100569.19;;;18.33;69.26
36222;BME280;22266;52.340;4.962;2022-09-09T12:25:52;100557.53;;;18.37;69.58
36222;BME280;22266;52.340;4.962;2022-09-09T12:31:07;100563.66;;;18.49;68.95
36222;BME280;22266;52.340;4.962;2022-09-09T12:33:39;100563.13;;;18.47;68.95
36222;BME280;22266;52.340;4.962;2022-09-09T12:36:14;100554.69;;;18.49;69.22
36222;BME280;22266;52.340;4.962;2022-09-09T12:38:43;100563.19;;;18.52;69.08
36222;BME280;22266;52.340;4.962;2022-09-09T12:41:24;100552.59;;;18.56;68.80
36222;BME280;22266;52.340;4.962;2022-09-09T12:43:51;100557.41;;;18.49;68.53
36222;BME280;22266;52.340;4.962;2022-09-09T12:46:37;100555.75;;;18.48;68.36
36222;BME280;22266;52.340;4.962;2022-09-09T12:49:26;100555.66;;;18.43;68.24
36222;BME280;22266;52.340;4.962;2022-09-09T12:51:55;100559.59;;;18.30;68.37
36222;BME280;22266;52.340;4.962;2022-09-09T12:54:23;100567.22;;;18.28;68.81
36222;BME280;22266;52.340;4.962;2022-09-09T12:56:50;100564.16;;;18.24;68.98
36222;BME280;22266;52.340;4.962;2022-09-09T12:59:35;100562.44;;;18.18;68.69
36222;BME280;22266;52.340;4.962;2022-09-09T13:02:01;100576.97;;;18.24;68.85
36222;BME280;22266;52.340;4.962;2022-09-09T13:04:28;100563.69;;;18.27;69.24
36222;BME280;22266;52.340;4.962;2022-09-09T13:07:05;100561.75;;;18.28;69.97
36222;BME280;22266;52.340;4.962;2022-09-09T13:09:33;100565.53;;;18.27;70.75
36222;BME280;22266;52.340;4.962;2022-09-09T13:11:59;100566.13;;;18.29;71.13
36222;BME280;22266;52.340;4.962;2022-09-09T13:14:32;100562.81;;;18.27;71.32
36222;BME280;22266;52.340;4.962;2022-09-09T13:17:02;100569.69;;;18.29;71.77
36222;BME280;22266;52.340;4.962;2022-09-09T13:19:33;100563.72;;;18.33;72.09
36222;BME280;22266;52.340;4.962;2022-09-09T13:22:19;100578.28;;;18.21;72.52
36222;BME280;22266;52.340;4.962;2022-09-09T13:24:46;100576.47;;;18.10;73.12
36222;BME280;22266;52.340;4.962;2022-09-09T13:27:31;100562.97;;;17.98;73.35
36222;BME280;22266;52.340;4.962;2022-09-09T13:29:57;100562.91;;;17.93;74.02
36222;BME280;22266;52.340;4.962;2022-09-09T13:32:26;100566.13;;;17.90;74.26
36222;BME280;22266;52.340;4.962;2022-09-09T13:34:59;100564.97;;;17.86;74.62
36222;BME280;22266;52.340;4.962;2022-09-09T13:37:36;100566.78;;;17.81;75.00
36222;BME280;22266;52.340;4.962;2022-09-09T13:40:12;100560.91;;;17.72;75.21
36222;BME280;22266;52.340;4.962;2022-09-09T13:42:44;100559.84;;;17.73;75.22
36222;BME280;22266;52.340;4.962;2022-09-09T13:45:22;100559.94;;;17.78;75.69
36222;BME280;22266;52.340;4.962;2022-09-09T13:47:50;100564.47;;;17.72;75.61
36222;BME280;22266;52.340;4.962;2022-09-09T13:50:28;100564.81;;;17.76;75.68
36222;BME280;22266;52.340;4.962;2022-09-09T13:52:57;100559.13;;;17.77;75.73
36222;BME280;22266;52.340;4.962;2022-09-09T13:55:28;100569.59;;;17.86;75.76
36222;BME280;22266;52.340;4.962;2022-09-09T13:57:58;100559.69;;;17.96;75.66
36222;BME280;22266;52.340;4.962;2022-09-09T14:00:29;100561.38;;;18.02;75.81
36222;BME280;22266;52.340;4.962;2022-09-09T14:02:56;100560.91;;;18.06;75.50
36222;BME280;22266;52.340;4.962;2022-09-09T14:05:22;100564.22;;;18.08;75.42
36222;BME280;22266;52.340;4.962;2022-09-09T14:07:49;100567.00;;;18.13;75.63
36222;BME280;22266;52.340;4.962;2022-09-09T14:10:18;100565.91;;;18.14;75.44
36222;BME280;22266;52.340;4.962;2022-09-09T14:12:45;100560.72;;;18.12;75.15
36222;BME280;22266;52.340;4.962;2022-09-09T14:15:12;100554.19;;;18.13;75.28
36222;BME280;22266;52.340;4.962;2022-09-09T14:17:40;100549.34;;;18.15;75.37
36222;BME280;22266;52.340;4.962;2022-09-09T14:20:07;100554.19;;;18.13;74.91
36222;BME280;22266;52.340;4.962;2022-09-09T14:22:36;100546.03;;;18.13;75.02
36222;BME280;22266;52.340;4.962;2022-09-09T14:25:03;100557.50;;;18.15;75.14
36222;BME280;22266;52.340;4.962;2022-09-09T14:27:30;100556.03;;;18.08;74.38
36222;BME280;22266;52.340;4.962;2022-09-09T14:29:56;100554.19;;;18.13;74.53
36222;BME280;22266;52.340;4.962;2022-09-09T14:32:23;100556.66;;;18.15;74.82
36222;BME280;22266;52.340;4.962;2022-09-09T14:34:50;100556.75;;;18.20;74.63
36222;BME280;22266;52.340;4.962;2022-09-09T14:37:17;100560.69;;;18.29;74.53
36222;BME280;22266;52.340;4.962;2022-09-09T14:39:44;100549.03;;;18.34;74.38
36222;BME280;22266;52.340;4.962;2022-09-09T14:42:11;100555.28;;;18.34;74.00